sensor_id;sensor_type;location;lat;lon;timestamp;pressure;altitude;pressure_sealevel;temperature
68446;BMP280;35789;48.414;12.768;2023-12-04T00:00:00;97540.0;;;
68446;BMP280;35789;48.414;12.768;2023-12-04T00:05:00;97540.0;;;
68446;BMP280;35789;48.414;12.768;2023-12-04T00:10:00;97530.0;;;
68446;BMP280;35789;48.414;12.768;2023-12-04T00:15:00;97520.0;;;
68446;BMP280;35789;48.414;12.768;2023-12-04T00:20:00;97510.0;;;
68446;BMP280;35789;48.414;12.768;2023-12-04T00:25:00;97500.0;;;
68446;BMP280;35789;48.414;12.768;2023-12-04T00:30:00;97490.0;;;
68446;BMP280;35789;48.414;12.768;2023-12-04T00:35:00;97490.0;;;
68446;BMP280;35789;48.414;12.768;2023-12-04T00:40:00;97480.0;;;
68446;BMP280;35789;48.414;12.768;2023-12-04T00:45:03;97480.0;;;
68446;BMP280;35789;48.414;12.768;2023-12-04T00:50:00;97490.0;;;
68446;BMP280;35789;48.414;12.768;2023-12-04T00:55:00;97480.0;;;
68446;BMP280;35789;48.414;12.768;2023-12-04T01:00:00;97480.0;;;
68446;BMP280;35789;48.414;12.768;2023-12-04T01:05:00;97470.0;;;
68446;BMP280;35789;48.414;12.768;2023-12-04T01:10:00;97460.0;;;
68446;BMP280;35789;48.414;12.768;2023-12-04T01:15:01;97460.0;;;
68446;BMP280;35789;48.414;12.768;2023-12-04T01:20:00;97440.0;;;
68446;BMP280;35789;48.414;12.768;2023-12-04T01:25:00;97440.0;;;
68446;BMP280;35789;48.414;12.768;2023-12-04T01:30:00;97430.0;;;
68446;BMP280;35789;48.414;12.768;2023-12-04T01:35:01;97420.0;;;
68446;BMP280;35789;48.414;12.768;2023-12-04T01:40:00;97410.0;;;
68446;BMP280;35789;48.414;12.768;2023-12-04T01:45:00;97400.0;;;
68446;BMP280;35789;48.414;12.768;2023-12-04T01:50:00;97400.0;;;
68446;BMP280;35789;48.414;12.768;2023-12-04T01:55:00;97400.0;;;
68446;BMP280;35789;48.414;12.768;2023-12-04T02:00:02;97390.0;;;
68446;BMP280;35789;48.414;12.768;2023-12-04T02:05:01;97400.0;;;
68446;BMP280;35789;48.414;12.768;2023-12-04T02:10:00;97380.0;;;
68446;BMP280;35789;48.414;12.768;2023-12-04T02:15:00;97370.0;;;
68446;BMP280;35789;48.414;12.768;2023-12-04T02:20:01;97360.0;;;
68446;BMP280;35789;48.414;12.768;2023-12-04T02:25:01;97360.0;;;
68446;BMP280;35789;48.414;12.768;2023-12-04T02:30:02;97350.0;;;
68446;BMP280;35789;48.414;12.768;2023-12-04T02:35:04;97340.0;;;
68446;BMP280;35789;48.414;12.768;2023-12-04T02:40:02;97340.0;;;
68446;BMP280;35789;48.414;12.768;2023-12-04T02:45:00;97320.0;;;
68446;BMP280;35789;48.414;12.768;2023-12-04T02:50:00;97320.0;;;
68446;BMP280;35789;48.414;12.768;2023-12-04T02:55:00;97320.0;;;
68446;BMP280;35789;48.414;12.768;2023-12-04T03:00:00;97320.0;;;
68446;BMP280;35789;48.414;12.768;2023-12-04T03:05:00;97310.0;;;
68446;BMP280;35789;48.414;12.768;2023-12-04T03:10:00;97290.0;;;
68446;BMP280;35789;48.414;12.768;2023-12-04T03:15:00;97280.0;;;
68446;BMP280;35789;48.414;12.768;2023-12-04T03:20:00;97270.0;;;
68446;BMP280;35789;48.414;12.768;2023-12-04T03:25:00;97270.0;;;
68446;BMP280;35789;48.414;12.768;2023-12-04T03:30:00;97270.0;;;
68446;BMP280;35789;48.414;12.768;2023-12-04T03:35:00;97260.0;;;
68446;BMP280;35789;48.414;12.768;2023-12-04T03:40:00;97260.0;;;
68446;BMP280;35789;48.414;12.768;2023-12-04T03:45:00;97260.0;;;
68446;BMP280;35789;48.414;12.768;2023-12-04T03:50:00;97250.0;;;
68446;BMP280;35789;48.414;12.768;2023-12-04T03:55:00;97240.0;;;
68446;BMP280;35789;48.414;12.768;2023-12-04T04:00:00;97230.0;;;
68446;BMP280;35789;48.414;12.768;2023-12-04T04:05:00;97230.0;;;
68446;BMP280;35789;48.414;12.768;2023-12-04T04:10:00;97220.0;;;
68446;BMP280;35789;48.414;12.768;2023-12-04T04:15:00;97210.0;;;
68446;BMP280;35789;48.414;12.768;2023-12-04T04:20:00;97220.0;;;
68446;BMP280;35789;48.414;12.768;2023-12-04T04:25:00;97220.0;;;
68446;BMP280;35789;48.414;12.768;2023-12-04T04:30:00;97230.0;;;
68446;BMP280;35789;48.414;12.768;2023-12-04T04:35:00;97210.0;;;
68446;BMP280;35789;48.414;12.768;2023-12-04T04:40:00;97200.0;;;
68446;BMP280;35789;48.414;12.768;2023-12-04T04:45:00;97190.0;;;
68446;BMP280;35789;48.414;12.768;2023-12-04T04:50:00;97190.0;;;
68446;BMP280;35789;48.414;12.768;2023-12-04T04:55:00;97180.0;;;
68446;BMP280;35789;48.414;12.768;2023-12-04T05:00:00;97170.0;;;
68446;BMP280;35789;48.414;12.768;2023-12-04T05:05:03;97160.0;;;
68446;BMP280;35789;48.414;12.768;2023-12-04T05:10:00;97160.0;;;
68446;BMP280;35789;48.414;12.768;2023-12-04T05:15:00;97160.0;;;
68446;BMP280;35789;48.414;12.768;2023-12-04T05:20:00;97150.0;;;
68446;BMP280;35789;48.414;12.768;2023-12-04T05:25:00;97150.0;;;
68446;BMP280;35789;48.414;12.768;2023-12-04T05:30:00;97130.0;;;
68446;BMP280;35789;48.414;12.768;2023-12-04T05:35:00;97130.0;;;
68446;BMP280;35789;48.414;12.768;2023-12-04T05:40:00;97120.0;;;
68446;BMP280;35789;48.414;12.768;2023-12-04T05:45:00;97110.0;;;
68446;BMP280;35789;48.414;12.768;2023-12-04T05:50:00;97110.0;;;
68446;BMP280;35789;48.414;12.768;2023-12-04T05:55:00;97110.0;;;
68446;BMP280;35789;48.414;12.768;2023-12-04T06:00:00;97100.0;;;
68446;BMP280;35789;48.414;12.768;2023-12-04T06:05:00;97110.0;;;
68446;BMP280;35789;48.414;12.768;2023-12-04T06:10:00;97110.0;;;
68446;BMP280;35789;48.414;12.768;2023-12-04T06:15:00;97100.0;;;
68446;BMP280;35789;48.414;12.768;2023-12-04T06:20:00;97100.0;;;
68446;BMP280;35789;48.414;12.768;2023-12-04T06:25:00;97110.0;;;
68446;BMP280;35789;48.414;12.768;2023-12-04T06:30:00;97100.0;;;
68446;BMP280;35789;48.414;12.768;2023-12-04T06:35:01;97080.0;;;
68446;BMP280;35789;48.414;12.768;2023-12-04T06:40:00;97080.0;;;
68446;BMP280;35789;48.414;12.768;2023-12-04T06:45:00;97060.0;;;
68446;BMP280;35789;48.414;12.768;2023-12-04T06:50:00;97060.0;;;
68446;BMP280;35789;48.414;12.768;2023-12-04T06:55:00;97060.0;;;
68446;BMP280;35789;48.414;12.768;2023-12-04T07:00:00;97060.0;;;
68446;BMP280;35789;48.414;12.768;2023-12-04T07:05:00;97070.0;;;
68446;BMP280;35789;48.414;12.768;2023-12-04T07:10:00;97070.0;;;
68446;BMP280;35789;48.414;12.768;2023-12-04T07:15:00;97060.0;;;
68446;BMP280;35789;48.414;12.768;2023-12-04T07:20:00;97050.0;;;
68446;BMP280;35789;48.414;12.768;2023-12-04T07:25:00;97030.0;;;
68446;BMP280;35789;48.414;12.768;2023-12-04T07:30:00;97020.0;;;
68446;BMP280;35789;48.414;12.768;2023-12-04T07:35:00;97020.0;;;
68446;BMP280;35789;48.414;12.768;2023-12-04T07:40:00;97020.0;;;
68446;BMP280;35789;48.414;12.768;2023-12-04T07:45:00;97010.0;;;
68446;BMP280;35789;48.414;12.768;2023-12-04T07:50:00;96990.0;;;
68446;BMP280;35789;48.414;12.768;2023-12-04T07:55:00;96970.0;;;
68446;BMP280;35789;48.414;12.768;2023-12-04T08:00:00;96970.0;;;
68446;BMP280;35789;48.414;12.768;2023-12-04T08:05:00;96960.0;;;
68446;BMP280;35789;48.414;12.768;2023-12-04T08:10:00;96970.0;;;
68446;BMP280;35789;48.414;12.768;2023-12-04T08:15:00;96950.0;;;
68446;BMP280;35789;48.414;12.768;2023-12-04T08:20:00;96940.0;;;
68446;BMP280;35789;48.414;12.768;2023-12-04T08:25:00;96930.0;;;
68446;BMP280;35789;48.414;12.768;2023-12-04T08:30:00;96930.0;;;
68446;BMP280;35789;48.414;12.768;2023-12-04T08:35:00;96920.0;;;
68446;BMP280;35789;48.414;12.768;2023-12-04T08:40:00;96910.0;;;
68446;BMP280;35789;48.414;12.768;2023-12-04T08:45:00;96910.0;;;
68446;BMP280;35789;48.414;12.768;2023-12-04T08:50:00;96910.0;;;
68446;BMP280;35789;48.414;12.768;2023-12-04T08:55:00;96900.0;;;
68446;BMP280;35789;48.414;12.768;2023-12-04T09:00:00;96900.0;;;
68446;BMP280;35789;48.414;12.768;2023-12-04T09:05:00;96900.0;;;
68446;BMP280;35789;48.414;12.768;2023-12-04T09:10:00;96890.0;;;
68446;BMP280;35789;48.414;12.768;2023-12-04T09:15:00;96890.0;;;
68446;BMP280;35789;48.414;12.768;2023-12-04T09:20:00;96890.0;;;
68446;BMP280;35789;48.414;12.768;2023-12-04T09:25:00;96900.0;;;
68446;BMP280;35789;48.414;12.768;2023-12-04T09:30:01;96880.0;;;
68446;BMP280;35789;48.414;12.768;2023-12-04T09:35:00;96880.0;;;
68446;BMP280;35789;48.414;12.768;2023-12-04T09:40:00;96870.0;;;
68446;BMP280;35789;48.414;12.768;2023-12-04T09:45:01;96880.0;;;
68446;BMP280;35789;48.414;12.768;2023-12-04T09:50:00;96870.0;;;
68446;BMP280;35789;48.414;12.768;2023-12-04T09:55:00;96870.0;;;
68446;BMP280;35789;48.414;12.768;2023-12-04T10:00:02;96840.0;;;
68446;BMP280;35789;48.414;12.768;2023-12-04T10:05:00;96840.0;;;
68446;BMP280;35789;48.414;12.768;2023-12-04T10:10:00;96830.0;;;
68446;BMP280;35789;48.414;12.768;2023-12-04T10:15:06;96800.0;;;
68446;BMP280;35789;48.414;12.768;2023-12-04T10:20:05;96800.0;;;
68446;BMP280;35789;48.414;12.768;2023-12-04T10:25:14;96780.0;;;
68446;BMP280;35789;48.414;12.768;2023-12-04T10:30:01;96770.0;;;
68446;BMP280;35789;48.414;12.768;2023-12-04T10:35:00;96770.0;;;
68446;BMP280;35789;48.414;12.768;2023-12-04T10:40:00;96760.0;;;
68446;BMP280;35789;48.414;12.768;2023-12-04T10:45:00;96740.0;;;
68446;BMP280;35789;48.414;12.768;2023-12-04T10:50:01;96730.0;;;
68446;BMP280;35789;48.414;12.768;2023-12-04T10:55:00;96740.0;;;
68446;BMP280;35789;48.414;12.768;2023-12-04T11:00:04;96740.0;;;
68446;BMP280;35789;48.414;12.768;2023-12-04T11:05:07;96720.0;;;
68446;BMP280;35789;48.414;12.768;2023-12-04T11:10:01;96720.0;;;
68446;BMP280;35789;48.414;12.768;2023-12-04T11:15:03;96720.0;;;
68446;BMP280;35789;48.414;12.768;2023-12-04T11:20:08;96720.0;;;
68446;BMP280;35789;48.414;12.768;2023-12-04T11:25:01;96710.0;;;
68446;BMP280;35789;48.414;12.768;2023-12-04T11:30:01;96710.0;;;
68446;BMP280;35789;48.414;12.768;2023-12-04T11:35:00;96700.0;;;
68446;BMP280;35789;48.414;12.768;2023-12-04T11:40:03;96700.0;;;
68446;BMP280;35789;48.414;12.768;2023-12-04T11:45:00;96690.0;;;
68446;BMP280;35789;48.414;12.768;2023-12-04T11:50:00;96680.0;;;
68446;BMP280;35789;48.414;12.768;2023-12-04T11:55:01;96670.0;;;
68446;BMP280;35789;48.414;12.768;2023-12-04T12:00:12;96670.0;;;
68446;BMP280;35789;48.414;12.768;2023-12-04T12:05:00;96660.0;;;
68446;BMP280;35789;48.414;12.768;2023-12-04T12:10:00;96650.0;;;
68446;BMP280;35789;48.414;12.768;2023-12-04T12:15:00;96650.0;;;
68446;BMP280;35789;48.414;12.768;2023-12-04T12:20:00;96650.0;;;
68446;BMP280;35789;48.414;12.768;2023-12-04T12:25:00;96640.0;;;
68446;BMP280;35789;48.414;12.768;2023-12-04T12:30:00;96640.0;;;
68446;BMP280;35789;48.414;12.768;2023-12-04T12:35:00;96640.0;;;
68446;BMP280;35789;48.414;12.768;2023-12-04T12:40:00;96620.0;;;
68446;BMP280;35789;48.414;12.768;2023-12-04T12:45:01;96620.0;;;
68446;BMP280;35789;48.414;12.768;2023-12-04T12:50:01;96620.0;;;
68446;BMP280;35789;48.414;12.768;2023-12-04T12:55:00;96620.0;;;
68446;BMP280;35789;48.414;12.768;2023-12-04T13:00:00;96620.0;;;
68446;BMP280;35789;48.414;12.768;2023-12-04T13:05:00;96620.0;;;
68446;BMP280;35789;48.414;12.768;2023-12-04T13:10:00;96620.0;;;
68446;BMP280;35789;48.414;12.768;2023-12-04T13:15:01;96600.0;;;
68446;BMP280;35789;48.414;12.768;2023-12-04T13:20:00;96600.0;;;
68446;BMP280;35789;48.414;12.768;2023-12-04T13:25:00;96610.0;;;
68446;BMP280;35789;48.414;12.768;2023-12-04T13:30:00;96600.0;;;
68446;BMP280;35789;48.414;12.768;2023-12-04T13:35:00;96590.0;;;
68446;BMP280;35789;48.414;12.768;2023-12-04T13:40:02;96590.0;;;
68446;BMP280;35789;48.414;12.768;2023-12-04T13:45:00;96590.0;;;
68446;BMP280;35789;48.414;12.768;2023-12-04T13:50:00;96590.0;;;
68446;BMP280;35789;48.414;12.768;2023-12-04T13:55:00;96590.0;;;
68446;BMP280;35789;48.414;12.768;2023-12-04T14:00:02;96590.0;;;
68446;BMP280;35789;48.414;12.768;2023-12-04T14:05:00;96580.0;;;
68446;BMP280;35789;48.414;12.768;2023-12-04T14:10:00;96570.0;;;
68446;BMP280;35789;48.414;12.768;2023-12-04T14:15:00;96570.0;;;
68446;BMP280;35789;48.414;12.768;2023-12-04T14:20:00;96560.0;;;
68446;BMP280;35789;48.414;12.768;2023-12-04T14:25:00;96550.0;;;
68446;BMP280;35789;48.414;12.768;2023-12-04T14:30:01;96550.0;;;
68446;BMP280;35789;48.414;12.768;2023-12-04T14:35:00;96530.0;;;
68446;BMP280;35789;48.414;12.768;2023-12-04T14:40:00;96530.0;;;
68446;BMP280;35789;48.414;12.768;2023-12-04T14:45:00;96530.0;;;
68446;BMP280;35789;48.414;12.768;2023-12-04T14:50:00;96540.0;;;
68446;BMP280;35789;48.414;12.768;2023-12-04T14:55:00;96540.0;;;
68446;BMP280;35789;48.414;12.768;2023-12-04T15:00:00;96520.0;;;
68446;BMP280;35789;48.414;12.768;2023-12-04T15:05:00;96510.0;;;
68446;BMP280;35789;48.414;12.768;2023-12-04T15:10:00;96510.0;;;
68446;BMP280;35789;48.414;12.768;2023-12-04T15:15:00;96520.0;;;
68446;BMP280;35789;48.414;12.768;2023-12-04T15:20:00;96510.0;;;
68446;BMP280;35789;48.414;12.768;2023-12-04T15:25:00;96510.0;;;
68446;BMP280;35789;48.414;12.768;2023-12-04T15:30:00;96500.0;;;
68446;BMP280;35789;48.414;12.768;2023-12-04T15:35:00;96510.0;;;
68446;BMP280;35789;48.414;12.768;2023-12-04T15:40:00;96510.0;;;
68446;BMP280;35789;48.414;12.768;2023-12-04T15:45:00;96500.0;;;
68446;BMP280;35789;48.414;12.768;2023-12-04T15:50:00;96510.0;;;
68446;BMP280;35789;48.414;12.768;2023-12-04T15:55:00;96490.0;;;
68446;BMP280;35789;48.414;12.768;2023-12-04T16:00:00;96500.0;;;
68446;BMP280;35789;48.414;12.768;2023-12-04T16:05:00;96520.0;;;
68446;BMP280;35789;48.414;12.768;2023-12-04T16:10:00;96530.0;;;
68446;BMP280;35789;48.414;12.768;2023-12-04T16:15:00;96520.0;;;
68446;BMP280;35789;48.414;12.768;2023-12-04T16:20:01;96530.0;;;
68446;BMP280;35789;48.414;12.768;2023-12-04T16:25:00;96530.0;;;
68446;BMP280;35789;48.414;12.768;2023-12-04T16:30:00;96540.0;;;
68446;BMP280;35789;48.414;12.768;2023-12-04T16:35:00;96530.0;;;
68446;BMP280;35789;48.414;12.768;2023-12-04T16:40:00;96530.0;;;
68446;BMP280;35789;48.414;12.768;2023-12-04T16:45:00;96530.0;;;
68446;BMP280;35789;48.414;12.768;2023-12-04T16:50:00;96520.0;;;
68446;BMP280;35789;48.414;12.768;2023-12-04T16:55:00;96520.0;;;
68446;BMP280;35789;48.414;12.768;2023-12-04T17:00:00;96520.0;;;
68446;BMP280;35789;48.414;12.768;2023-12-04T17:05:00;96510.0;;;
68446;BMP280;35789;48.414;12.768;2023-12-04T17:10:00;96500.0;;;
68446;BMP280;35789;48.414;12.768;2023-12-04T17:15:00;96490.0;;;
68446;BMP280;35789;48.414;12.768;2023-12-04T17:20:00;96470.0;;;
68446;BMP280;35789;48.414;12.768;2023-12-04T17:25:00;96480.0;;;
68446;BMP280;35789;48.414;12.768;2023-12-04T17:30:00;96490.0;;;
68446;BMP280;35789;48.414;12.768;2023-12-04T17:35:01;96480.0;;;
68446;BMP280;35789;48.414;12.768;2023-12-04T17:40:00;96490.0;;;
68446;BMP280;35789;48.414;12.768;2023-12-04T17:45:01;96480.0;;;
68446;BMP280;35789;48.414;12.768;2023-12-04T17:50:00;96480.0;;;
68446;BMP280;35789;48.414;12.768;2023-12-04T17:55:00;96500.0;;;
68446;BMP280;35789;48.414;12.768;2023-12-04T18:00:00;96500.0;;;
68446;BMP280;35789;48.414;12.768;2023-12-04T18:05:00;96510.0;;;
68446;BMP280;35789;48.414;12.768;2023-12-04T18:10:01;96500.0;;;
68446;BMP280;35789;48.414;12.768;2023-12-04T18:15:00;96500.0;;;
68446;BMP280;35789;48.414;12.768;2023-12-04T18:20:00;96480.0;;;
68446;BMP280;35789;48.414;12.768;2023-12-04T18:25:00;96460.0;;;
68446;BMP280;35789;48.414;12.768;2023-12-04T18:30:01;96460.0;;;
68446;BMP280;35789;48.414;12.768;2023-12-04T18:35:01;96450.0;;;
68446;BMP280;35789;48.414;12.768;2023-12-04T18:40:02;96450.0;;;
68446;BMP280;35789;48.414;12.768;2023-12-04T18:45:01;96420.0;;;
68446;BMP280;35789;48.414;12.768;2023-12-04T18:50:00;96410.0;;;
68446;BMP280;35789;48.414;12.768;2023-12-04T18:55:00;96400.0;;;
68446;BMP280;35789;48.414;12.768;2023-12-04T19:00:00;96390.0;;;
68446;BMP280;35789;48.414;12.768;2023-12-04T19:05:00;96420.0;;;
68446;BMP280;35789;48.414;12.768;2023-12-04T19:10:00;96390.0;;;
68446;BMP280;35789;48.414;12.768;2023-12-04T19:15:00;96390.0;;;
68446;BMP280;35789;48.414;12.768;2023-12-04T19:20:00;96420.0;;;
68446;BMP280;35789;48.414;12.768;2023-12-04T19:25:00;96420.0;;;
68446;BMP280;35789;48.414;12.768;2023-12-04T19:30:00;96430.0;;;
68446;BMP280;35789;48.414;12.768;2023-12-04T19:35:00;96440.0;;;
68446;BMP280;35789;48.414;12.768;2023-12-04T19:40:03;96430.0;;;
68446;BMP280;35789;48.414;12.768;2023-12-04T19:45:00;96430.0;;;
68446;BMP280;35789;48.414;12.768;2023-12-04T19:55:00;96400.0;;;
68446;BMP280;35789;48.414;12.768;2023-12-04T20:00:00;96400.0;;;
68446;BMP280;35789;48.414;12.768;2023-12-04T20:05:00;96390.0;;;
68446;BMP280;35789;48.414;12.768;2023-12-04T20:10:00;96380.0;;;
68446;BMP280;35789;48.414;12.768;2023-12-04T20:15:00;96390.0;;;
68446;BMP280;35789;48.414;12.768;2023-12-04T20:20:00;96390.0;;;
68446;BMP280;35789;48.414;12.768;2023-12-04T20:25:00;96370.0;;;
68446;BMP280;35789;48.414;12.768;2023-12-04T20:30:00;96380.0;;;
68446;BMP280;35789;48.414;12.768;2023-12-04T20:35:00;96380.0;;;
68446;BMP280;35789;48.414;12.768;2023-12-04T20:40:00;96380.0;;;
68446;BMP280;35789;48.414;12.768;2023-12-04T20:45:00;96380.0;;;
68446;BMP280;35789;48.414;12.768;2023-12-04T20:50:00;96380.0;;;
68446;BMP280;35789;48.414;12.768;2023-12-04T20:55:00;96380.0;;;
68446;BMP280;35789;48.414;12.768;2023-12-04T21:00:00;96370.0;;;
68446;BMP280;35789;48.414;12.768;2023-12-04T21:05:00;96360.0;;;
68446;BMP280;35789;48.414;12.768;2023-12-04T21:10:00;96360.0;;;
68446;BMP280;35789;48.414;12.768;2023-12-04T21:15:00;96360.0;;;
68446;BMP280;35789;48.414;12.768;2023-12-04T21:20:00;96360.0;;;
68446;BMP280;35789;48.414;12.768;2023-12-04T21:25:00;96360.0;;;
68446;BMP280;35789;48.414;12.768;2023-12-04T21:30:00;96350.0;;;
68446;BMP280;35789;48.414;12.768;2023-12-04T21:35:00;96350.0;;;
68446;BMP280;35789;48.414;12.768;2023-12-04T21:40:00;96350.0;;;
68446;BMP280;35789;48.414;12.768;2023-12-04T21:45:00;96350.0;;;
68446;BMP280;35789;48.414;12.768;2023-12-04T21:50:00;96350.0;;;
68446;BMP280;35789;48.414;12.768;2023-12-04T21:55:00;96360.0;;;
68446;BMP280;35789;48.414;12.768;2023-12-04T22:00:00;96350.0;;;
68446;BMP280;35789;48.414;12.768;2023-12-04T22:05:00;96350.0;;;
68446;BMP280;35789;48.414;12.768;2023-12-04T22:10:00;96350.0;;;
68446;BMP280;35789;48.414;12.768;2023-12-04T22:15:00;96340.0;;;
68446;BMP280;35789;48.414;12.768;2023-12-04T22:20:00;96340.0;;;
68446;BMP280;35789;48.414;12.768;2023-12-04T22:25:00;96330.0;;;
68446;BMP280;35789;48.414;12.768;2023-12-04T22:30:00;96320.0;;;
68446;BMP280;35789;48.414;12.768;2023-12-04T22:35:00;96320.0;;;
68446;BMP280;35789;48.414;12.768;2023-12-04T22:40:00;96320.0;;;
68446;BMP280;35789;48.414;12.768;2023-12-04T22:45:00;96320.0;;;
68446;BMP280;35789;48.414;12.768;2023-12-04T22:50:00;96330.0;;;
68446;BMP280;35789;48.414;12.768;2023-12-04T22:55:00;96320.0;;;
68446;BMP280;35789;48.414;12.768;2023-12-04T23:00:00;96320.0;;;
68446;BMP280;35789;48.414;12.768;2023-12-04T23:05:00;96320.0;;;
68446;BMP280;35789;48.414;12.768;2023-12-04T23:10:00;96300.0;;;
68446;BMP280;35789;48.414;12.768;2023-12-04T23:15:00;96290.0;;;
68446;BMP280;35789;48.414;12.768;2023-12-04T23:20:00;96290.0;;;
68446;BMP280;35789;48.414;12.768;2023-12-04T23:25:00;96280.0;;;
68446;BMP280;35789;48.414;12.768;2023-12-04T23:30:00;96300.0;;;
68446;BMP280;35789;48.414;12.768;2023-12-04T23:35:00;96290.0;;;
68446;BMP280;35789;48.414;12.768;2023-12-04T23:40:00;96290.0;;;
68446;BMP280;35789;48.414;12.768;2023-12-04T23:45:00;96280.0;;;
68446;BMP280;35789;48.414;12.768;2023-12-04T23:50:00;96280.0;;;
68446;BMP280;35789;48.414;12.768;2023-12-04T23:55:00;96280.0;;;
